createdAt,value
2019-04-07T00:01:32.021Z,56.10
2019-04-07T00:04:01.037Z,56.37
2019-04-07T00:06:30.610Z,55.83
2019-04-07T00:09:00.489Z,57.07
2019-04-07T00:11:30.373Z,55.57
2019-04-07T00:13:59.225Z,51.00
2019-04-07T00:16:28.133Z,56.13
2019-04-07T00:18:57.145Z,55.73
2019-04-07T00:21:26.315Z,57.27
2019-04-07T00:23:55.572Z,58.67
2019-04-07T00:26:24.986Z,57.00
2019-04-07T00:28:53.931Z,56.67
2019-04-07T00:31:22.885Z,56.50
2019-04-07T00:33:51.826Z,54.70
2019-04-07T00:36:20.875Z,55.53
2019-04-07T00:38:50.368Z,56.27
2019-04-07T00:41:19.986Z,56.80
2019-04-07T00:43:49.630Z,55.07
2019-04-07T00:46:19.086Z,52.93
2019-04-07T00:48:48.597Z,57.27
2019-04-07T00:51:17.880Z,53.60
2019-04-07T00:53:47.048Z,53.10
2019-04-07T00:56:15.909Z,52.77
2019-04-07T00:58:44.804Z,55.57
2019-04-07T01:01:17.065Z,54.93
2019-04-07T01:03:46.027Z,56.30
2019-04-07T01:06:14.949Z,54.47
2019-04-07T01:08:43.909Z,55.50
2019-04-07T01:11:13.438Z,54.90
2019-04-07T01:13:42.783Z,55.80
2019-04-07T01:16:11.939Z,54.87
2019-04-07T01:18:41.150Z,53.47
2019-04-07T01:21:10.089Z,54.23
2019-04-07T01:23:39.064Z,54.90
2019-04-07T01:26:08.564Z,54.40
2019-04-07T01:28:37.730Z,56.57
2019-04-07T01:31:07.205Z,54.97
2019-04-07T01:33:36.764Z,54.40
2019-04-07T01:36:05.884Z,56.47
2019-04-07T01:38:34.822Z,56.57
2019-04-07T01:41:15.251Z,54.50
2019-04-07T01:43:56.772Z,55.73
2019-04-07T01:46:48.026Z,56.37
2019-04-07T01:49:36.250Z,56.73
2019-04-07T01:52:27.316Z,42.30
2019-04-07T01:55:14.575Z,54.80
2019-04-07T01:58:01.100Z,56.10
2019-04-07T02:00:52.165Z,54.63
2019-04-07T02:03:27.594Z,55.30
2019-04-07T02:06:24.685Z,56.03
2019-04-07T02:09:01.799Z,56.03
2019-04-07T02:12:00.637Z,56.83
2019-04-07T02:14:55.099Z,56.77
2019-04-07T02:17:30.115Z,57.93
2019-04-07T02:20:13.566Z,55.67
2019-04-07T02:22:49.824Z,56.53
2019-04-07T02:25:30.790Z,56.23
2019-04-07T02:28:28.027Z,55.67
2019-04-07T02:31:17.010Z,56.03
2019-04-07T02:34:00.109Z,55.27
2019-04-07T02:36:42.217Z,54.27
2019-04-07T02:39:34.697Z,54.73
2019-04-07T02:42:17.082Z,56.10
2019-04-07T02:44:55.768Z,55.10
2019-04-07T02:47:45.276Z,57.37
2019-04-07T02:50:19.151Z,56.97
2019-04-07T02:53:13.481Z,55.73
2019-04-07T02:56:05.375Z,57.07
2019-04-07T02:58:52.743Z,57.17
2019-04-07T03:01:37.061Z,56.53
2019-04-07T03:04:24.525Z,54.67
2019-04-07T03:07:03.089Z,56.07
2019-04-07T03:09:53.603Z,56.37
2019-04-07T03:12:51.192Z,54.13
2019-04-07T03:15:34.859Z,55.20
2019-04-07T03:18:14.225Z,56.90
2019-04-07T03:21:01.165Z,55.80
2019-04-07T03:23:38.599Z,56.67
2019-04-07T03:26:25.800Z,57.03
2019-04-07T03:29:12.369Z,58.43
2019-04-07T03:32:18.871Z,55.97
2019-04-07T03:35:05.418Z,58.90
2019-04-07T03:37:53.157Z,57.53
2019-04-07T03:40:48.176Z,56.33
2019-04-07T03:43:36.400Z,57.37
2019-04-07T03:46:10.198Z,57.60
2019-04-07T03:48:47.932Z,59.43
2019-04-07T03:51:26.829Z,60.57
2019-04-07T03:54:33.566Z,59.03
2019-04-07T03:57:16.947Z,57.90
2019-04-07T04:00:20.889Z,58.73
2019-04-07T04:03:12.850Z,57.73
2019-04-07T04:05:53.812Z,57.23
2019-04-07T04:08:47.714Z,58.03
2019-04-07T04:11:48.910Z,57.60
2019-04-07T04:14:25.579Z,58.70
2019-04-07T04:16:54.472Z,60.20
2019-04-07T04:19:23.369Z,60.63
2019-04-07T04:21:52.540Z,59.33
2019-04-07T04:24:22.868Z,58.37
2019-04-07T04:26:52.231Z,57.83
2019-04-07T04:29:23.059Z,58.10
2019-04-07T04:31:52.617Z,59.83
2019-04-07T04:34:21.951Z,60.10
2019-04-07T04:36:51.788Z,60.20
2019-04-07T04:39:21.597Z,60.47
2019-04-07T04:41:50.834Z,58.87
2019-04-07T04:44:20.601Z,61.07
2019-04-07T04:46:50.881Z,57.30
2019-04-07T04:49:20.023Z,62.67
2019-04-07T04:51:50.053Z,61.23
2019-04-07T04:54:19.423Z,60.30
2019-04-07T04:56:48.449Z,60.83
2019-04-07T04:59:18.241Z,60.73
2019-04-07T05:01:47.829Z,59.00
2019-04-07T05:04:17.445Z,62.23
2019-04-07T05:06:46.766Z,60.37
2019-04-07T05:09:15.757Z,60.53
2019-04-07T05:11:44.593Z,60.57
2019-04-07T05:14:14.079Z,59.20
2019-04-07T05:16:43.589Z,59.77
2019-04-07T05:19:12.821Z,60.17
2019-04-07T05:21:42.665Z,59.30
2019-04-07T05:24:11.646Z,59.00
2019-04-07T05:26:40.611Z,60.10
2019-04-07T05:29:10.285Z,59.00
2019-04-07T05:31:40.096Z,60.10
2019-04-07T05:34:09.334Z,57.97
2019-04-07T05:36:38.911Z,58.40
2019-04-07T05:39:08.676Z,58.83
2019-04-07T05:41:38.416Z,58.20
2019-04-07T05:44:07.739Z,57.87
2019-04-07T05:46:40.289Z,59.83
2019-04-07T05:49:07.624Z,60.53
2019-04-07T05:51:37.043Z,61.17
2019-04-07T05:54:06.119Z,56.43
2019-04-07T05:56:34.933Z,56.90
2019-04-07T05:59:03.892Z,58.13
2019-04-07T06:01:33.433Z,56.60
2019-04-07T06:04:02.693Z,57.37
2019-04-07T06:06:31.699Z,57.30
2019-04-07T06:09:00.727Z,55.37
2019-04-07T06:11:33.139Z,56.10
2019-04-07T06:14:00.817Z,56.40
2019-04-07T06:16:30.074Z,55.10
2019-04-07T06:19:00.927Z,56.03
2019-04-07T06:21:29.682Z,53.90
2019-04-07T06:24:00.394Z,54.80
2019-04-07T06:26:29.296Z,53.37
2019-04-07T06:28:58.863Z,55.23
2019-04-07T06:31:31.274Z,56.75
2019-04-07T06:33:58.956Z,52.83
2019-04-07T06:36:28.647Z,56.57
2019-04-07T06:38:58.141Z,53.10
2019-04-07T06:41:30.293Z,54.77
2019-04-07T06:44:08.878Z,53.93
2019-04-07T06:46:37.942Z,53.07
2019-04-07T06:49:28.443Z,50.33
2019-04-07T06:52:18.294Z,50.33
2019-04-07T06:55:09.832Z,50.53
2019-04-07T06:57:51.720Z,51.83
2019-04-07T07:00:31.194Z,50.80
2019-04-07T07:03:38.847Z,49.83
2019-04-07T07:06:24.119Z,50.40
2019-04-07T07:09:15.532Z,50.50
2019-04-07T07:12:18.322Z,47.30
2019-04-07T07:14:56.132Z,48.17
2019-04-07T07:17:33.147Z,47.67
2019-04-07T07:20:18.801Z,49.73
2019-04-07T07:22:52.651Z,47.60
2019-04-07T07:25:22.552Z,49.53
2019-04-07T07:27:52.129Z,47.67
2019-04-07T07:30:21.635Z,50.13
2019-04-07T07:32:50.769Z,49.07
2019-04-07T07:35:19.950Z,47.97
2019-04-07T07:37:48.790Z,37.90
2019-04-07T07:40:18.465Z,48.43
2019-04-07T07:42:49.579Z,48.20
2019-04-07T07:45:18.689Z,47.67
2019-04-07T07:47:51.367Z,48.30
2019-04-07T07:50:19.093Z,47.07
2019-04-07T07:52:51.325Z,45.33
2019-04-07T07:55:19.705Z,47.23
2019-04-07T07:57:49.154Z,43.23
2019-04-07T08:00:18.828Z,45.37
2019-04-07T08:02:50.198Z,45.97
2019-04-07T08:05:18.709Z,43.60
2019-04-07T08:07:49.427Z,39.73
2019-04-07T08:10:18.690Z,42.67
2019-04-07T08:12:49.514Z,39.33
2019-04-07T08:15:22.872Z,42.83
2019-04-07T08:17:49.234Z,42.87
2019-04-07T08:20:18.583Z,31.63
2019-04-07T08:22:48.181Z,42.83
2019-04-07T08:25:20.415Z,40.37
2019-04-07T08:27:48.729Z,42.30
2019-04-07T08:30:18.416Z,41.37
2019-04-07T08:32:47.801Z,42.13
2019-04-07T08:35:17.569Z,32.53
2019-04-07T08:37:48.678Z,39.37
2019-04-07T08:40:17.221Z,35.83
2019-04-07T08:42:48.302Z,40.47
2019-04-07T08:45:17.883Z,36.87
2019-04-07T08:47:48.907Z,37.63
2019-04-07T08:50:17.724Z,39.33
2019-04-07T08:52:46.713Z,35.60
2019-04-07T08:55:15.629Z,19.17
2019-04-07T08:57:44.690Z,38.77
2019-04-07T09:00:20.190Z,37.50
2019-04-07T09:03:01.031Z,37.53
2019-04-07T09:05:25.610Z,38.47
2019-04-07T09:07:51.878Z,30.63
2019-04-07T09:10:32.482Z,27.97
2019-04-07T09:13:02.990Z,37.67
2019-04-07T09:15:43.646Z,36.50
2019-04-07T09:18:18.346Z,37.33
2019-04-07T09:20:56.078Z,33.50
2019-04-07T09:23:47.051Z,36.63
2019-04-07T09:26:28.270Z,34.13
2019-04-07T09:29:19.477Z,38.90
2019-04-07T09:32:09.890Z,36.83
2019-04-07T09:34:57.193Z,41.23
2019-04-07T09:37:33.346Z,27.43
2019-04-07T09:40:21.840Z,37.37
2019-04-07T09:43:06.782Z,37.40
2019-04-07T09:45:43.627Z,33.10
2019-04-07T09:48:21.805Z,36.23
2019-04-07T09:51:04.143Z,34.10
2019-04-07T09:54:03.978Z,36.63
2019-04-07T09:56:47.430Z,30.27
2019-04-07T09:59:42.897Z,38.07
2019-04-07T10:02:33.562Z,35.83
2019-04-07T10:05:34.906Z,30.03
2019-04-07T10:08:18.348Z,36.27
2019-04-07T10:11:09.798Z,37.33
2019-04-07T10:14:02.130Z,36.83
2019-04-07T10:16:49.525Z,19.50
2019-04-07T10:19:46.935Z,27.87
2019-04-07T10:22:34.769Z,14.87
2019-04-07T10:25:25.145Z,35.67
2019-04-07T10:28:11.034Z,17.83
2019-04-07T10:30:52.883Z,33.33
2019-04-07T10:33:40.567Z,33.77
2019-04-07T10:36:20.637Z,27.10
2019-04-07T10:39:15.034Z,33.40
2019-04-07T10:42:06.762Z,21.83
2019-04-07T10:44:58.326Z,27.07
2019-04-07T10:47:33.573Z,33.30
2019-04-07T10:50:22.181Z,31.37
2019-04-07T10:53:09.298Z,23.13
2019-04-07T10:55:49.647Z,30.83
2019-04-07T10:58:31.289Z,13.60
2019-04-07T11:01:19.426Z,27.00
2019-04-07T11:04:06.068Z,27.57
2019-04-07T11:06:56.274Z,29.43
2019-04-07T11:09:42.787Z,30.40
2019-04-07T11:12:42.417Z,18.00
2019-04-07T11:15:30.575Z,28.93
2019-04-07T11:18:19.038Z,29.33
2019-04-07T11:21:00.986Z,29.77
2019-04-07T11:23:47.450Z,30.07
2019-04-07T11:26:45.963Z,28.30
2019-04-07T11:29:25.101Z,22.80
2019-04-07T11:32:03.709Z,21.93
2019-04-07T11:35:00.785Z,26.13
2019-04-07T11:37:49.044Z,23.13
2019-04-07T11:40:25.556Z,25.83
2019-04-07T11:43:09.001Z,23.90
2019-04-07T11:45:56.174Z,24.80
2019-04-07T11:48:31.872Z,24.40
2019-04-07T11:51:13.021Z,24.37
2019-04-07T11:54:04.189Z,23.87
2019-04-07T11:56:41.942Z,21.50
2019-04-07T11:59:33.037Z,22.47
2019-04-07T12:02:11.148Z,18.37
2019-04-07T12:04:59.917Z,19.23
2019-04-07T12:07:42.545Z,14.30
2019-04-07T12:10:35.379Z,13.07
2019-04-07T12:13:40.680Z,12.00
2019-04-07T12:16:29.789Z,10.77
2019-04-07T12:19:08.648Z,11.63
2019-04-07T12:22:02.365Z,11.27
2019-04-07T12:24:57.537Z,10.23
2019-04-07T12:27:45.961Z,7.93
2019-04-07T12:30:38.041Z,10.07
2019-04-07T12:33:16.264Z,11.27
2019-04-07T12:36:14.047Z,11.53
2019-04-07T12:39:01.795Z,11.77
2019-04-07T12:42:04.429Z,10.37
2019-04-07T12:44:53.843Z,11.27
2019-04-07T12:47:35.435Z,11.50
2019-04-07T12:50:23.002Z,14.07
2019-04-07T12:53:23.729Z,12.83
2019-04-07T12:56:18.328Z,13.40
2019-04-07T12:59:01.419Z,15.10
2019-04-07T13:01:49.810Z,8.93
2019-04-07T13:04:36.517Z,14.87
2019-04-07T13:07:33.494Z,15.27
2019-04-07T13:10:11.095Z,14.37
2019-04-07T13:12:47.924Z,13.30
2019-04-07T13:15:36.719Z,13.60
2019-04-07T13:18:13.540Z,9.97
2019-04-07T13:21:02.240Z,8.97
2019-04-07T13:23:49.292Z,12.47
2019-04-07T13:26:32.347Z,12.23
2019-04-07T13:29:09.648Z,11.90
2019-04-07T13:31:53.809Z,12.77
2019-04-07T13:34:33.458Z,10.30
2019-04-07T13:37:09.150Z,13.47
2019-04-07T13:39:56.702Z,13.07
2019-04-07T13:43:00.594Z,14.03
2019-04-07T13:45:46.803Z,13.90
2019-04-07T13:48:24.253Z,11.57
2019-04-07T13:51:12.969Z,16.60
2019-04-07T13:53:57.745Z,14.00
2019-04-07T13:56:33.391Z,16.70
2019-04-07T13:59:25.147Z,14.83
2019-04-07T14:02:18.457Z,15.70
2019-04-07T14:04:59.827Z,15.80
2019-04-07T14:07:37.233Z,15.73
2019-04-07T14:10:19.071Z,15.33
2019-04-07T14:13:13.647Z,14.90
2019-04-07T14:15:54.121Z,14.13
2019-04-07T14:18:58.070Z,14.43
2019-04-07T14:21:32.745Z,14.90
2019-04-07T14:24:11.777Z,14.83
2019-04-07T14:26:58.832Z,15.10
2019-04-07T14:29:46.005Z,14.07
2019-04-07T14:32:33.733Z,14.70
2019-04-07T14:35:20.541Z,15.30
2019-04-07T14:37:58.269Z,16.37
2019-04-07T14:40:40.973Z,14.40
2019-04-07T14:43:15.877Z,13.70
2019-04-07T14:46:04.397Z,14.17
2019-04-07T14:49:14.080Z,13.03
2019-04-07T14:51:52.502Z,11.90
2019-04-07T14:54:39.697Z,11.73
2019-04-07T14:57:32.913Z,11.73
2019-04-07T15:00:08.922Z,11.47
2019-04-07T15:02:38.977Z,11.47
2019-04-07T15:05:15.876Z,12.50
2019-04-07T15:08:00.017Z,12.77
2019-04-07T15:10:36.211Z,12.73
2019-04-07T15:13:09.135Z,11.00
2019-04-07T15:15:38.835Z,12.93
2019-04-07T15:18:08.391Z,12.47
2019-04-07T15:20:37.857Z,12.00
2019-04-07T15:23:06.955Z,11.17
2019-04-07T15:25:38.657Z,12.03
2019-04-07T15:28:06.887Z,12.77
2019-04-07T15:30:36.307Z,10.77
2019-04-07T15:33:06.102Z,10.73
2019-04-07T15:35:35.522Z,10.33
2019-04-07T15:38:05.367Z,12.77
2019-04-07T15:40:36.260Z,13.00
2019-04-07T15:43:08.800Z,10.93
2019-04-07T15:45:37.035Z,10.07
2019-04-07T15:48:07.053Z,9.43
2019-04-07T15:50:36.186Z,13.07
2019-04-07T15:53:05.097Z,11.83
2019-04-07T15:55:45.470Z,12.60
2019-04-07T15:58:04.637Z,12.77
2019-04-07T16:00:35.210Z,10.43
2019-04-07T16:03:04.391Z,9.13
2019-04-07T16:05:41.095Z,9.70
2019-04-07T16:08:04.984Z,10.90
2019-04-07T16:10:33.820Z,9.20
2019-04-07T16:13:02.739Z,12.23
2019-04-07T16:15:31.884Z,12.27
2019-04-07T16:18:03.335Z,11.43
2019-04-07T16:20:37.247Z,12.87
2019-04-07T16:23:02.231Z,12.90
2019-04-07T16:25:32.174Z,13.33
2019-04-07T16:28:02.266Z,12.87
2019-04-07T16:30:31.437Z,11.20
2019-04-07T16:33:02.870Z,13.97
2019-04-07T16:35:31.065Z,13.67
2019-04-07T16:38:01.390Z,12.33
2019-04-07T16:40:31.569Z,13.10
2019-04-07T16:43:09.831Z,13.17
2019-04-07T16:45:31.623Z,12.20
2019-04-07T16:48:00.535Z,9.40
2019-04-07T16:50:29.525Z,13.53
2019-04-07T16:52:58.395Z,13.93
2019-04-07T16:55:48.992Z,13.17
2019-04-07T16:58:16.596Z,13.27
2019-04-07T17:00:45.468Z,12.27
2019-04-07T17:03:15.276Z,12.00
2019-04-07T17:05:45.122Z,11.70
2019-04-07T17:08:17.652Z,12.37
2019-04-07T17:10:45.426Z,9.53
2019-04-07T17:13:20.126Z,11.17
2019-04-07T17:15:45.115Z,11.70
2019-04-07T17:18:36.837Z,9.97
2019-04-07T17:21:11.747Z,9.30
2019-04-07T17:23:40.865Z,9.57
2019-04-07T17:26:10.377Z,9.47
2019-04-07T17:28:42.096Z,8.90
2019-04-07T17:31:11.610Z,9.03
2019-04-07T17:33:41.547Z,9.23
2019-04-07T17:36:15.350Z,11.50
2019-04-07T17:39:09.526Z,10.10
2019-04-07T17:41:38.029Z,13.53
2019-04-07T17:44:24.711Z,14.27
2019-04-07T17:47:19.847Z,13.80
2019-04-07T17:50:08.416Z,14.20
2019-04-07T17:52:47.117Z,9.90
2019-04-07T17:55:34.238Z,14.23
2019-04-07T17:58:36.721Z,16.20
2019-04-07T18:01:24.899Z,12.20
2019-04-07T18:04:22.936Z,13.37
2019-04-07T18:07:06.085Z,15.10
2019-04-07T18:09:43.867Z,12.00
2019-04-07T18:12:49.779Z,12.37
2019-04-07T18:15:29.561Z,12.60
2019-04-07T18:18:12.191Z,15.03
2019-04-07T18:21:18.031Z,10.13
2019-04-07T18:24:12.496Z,14.77
2019-04-07T18:27:00.331Z,15.23
2019-04-07T18:29:39.065Z,14.87
2019-04-07T18:32:30.719Z,15.10
2019-04-07T18:35:17.627Z,16.30
2019-04-07T18:38:04.448Z,16.10
2019-04-07T18:40:40.762Z,11.13
2019-04-07T18:43:49.794Z,16.27
2019-04-07T18:46:41.079Z,15.93
2019-04-07T18:49:47.194Z,14.83
2019-04-07T18:52:31.453Z,14.60
2019-04-07T18:55:19.152Z,14.77
2019-04-07T18:57:59.599Z,15.17
2019-04-07T19:00:57.617Z,10.63
2019-04-07T19:03:39.287Z,15.40
2019-04-07T19:06:36.912Z,13.13
2019-04-07T19:09:29.856Z,16.23
2019-04-07T19:12:14.111Z,14.93
2019-04-07T19:15:08.943Z,16.67
2019-04-07T19:17:56.712Z,16.33
2019-04-07T19:20:43.032Z,15.97
2019-04-07T19:23:25.365Z,15.97
2019-04-07T19:26:23.373Z,14.83
2019-04-07T19:29:00.437Z,15.60
2019-04-07T19:32:03.876Z,15.87
2019-04-07T19:35:07.686Z,15.97
2019-04-07T19:38:11.026Z,14.60
2019-04-07T19:41:00.190Z,12.70
2019-04-07T19:43:44.567Z,14.80
2019-04-07T19:46:31.652Z,15.67
2019-04-07T19:49:22.549Z,15.03
2019-04-07T19:52:08.340Z,14.97
2019-04-07T19:54:51.088Z,14.30
2019-04-07T19:57:45.261Z,13.90
2019-04-07T20:00:43.711Z,12.70
2019-04-07T20:03:24.272Z,13.37
2019-04-07T20:06:07.119Z,13.10
2019-04-07T20:08:47.786Z,13.07
2019-04-07T20:11:44.694Z,14.37
2019-04-07T20:14:23.237Z,12.30
2019-04-07T20:16:58.299Z,13.17
2019-04-07T20:19:49.103Z,13.10
2019-04-07T20:22:39.075Z,12.50
2019-04-07T20:25:31.483Z,12.77
2019-04-07T20:28:19.549Z,12.17
2019-04-07T20:31:12.666Z,11.93
2019-04-07T20:34:05.746Z,13.03
2019-04-07T20:36:51.653Z,12.90
2019-04-07T20:39:35.119Z,12.03
2019-04-07T20:42:37.711Z,12.47
2019-04-07T20:45:35.387Z,11.83
2019-04-07T20:48:17.086Z,10.67
2019-04-07T20:51:00.477Z,13.20
2019-04-07T20:53:49.299Z,12.10
2019-04-07T20:56:36.231Z,13.60
2019-04-07T20:59:26.055Z,13.00
2019-04-07T21:02:12.615Z,13.27
2019-04-07T21:04:53.420Z,12.93
2019-04-07T21:07:41.547Z,13.47
2019-04-07T21:10:23.203Z,11.90
2019-04-07T21:13:16.751Z,13.43
2019-04-07T21:16:10.235Z,13.90
2019-04-07T21:19:04.257Z,13.40
2019-04-07T21:21:50.954Z,14.13
2019-04-07T21:24:27.694Z,13.80
2019-04-07T21:27:24.727Z,14.73
2019-04-07T21:30:15.082Z,14.13
2019-04-07T21:33:02.432Z,14.73
2019-04-07T21:35:41.087Z,14.27
2019-04-07T21:38:24.893Z,14.73
2019-04-07T21:41:04.762Z,14.63
2019-04-07T21:43:47.707Z,12.97
2019-04-07T21:46:34.888Z,14.90
2019-04-07T21:49:25.873Z,15.30
2019-04-07T21:51:59.014Z,14.70
2019-04-07T21:54:44.179Z,14.20
2019-04-07T21:57:37.874Z,14.73
2019-04-07T22:00:32.068Z,14.40
2019-04-07T22:03:23.926Z,14.63
2019-04-07T22:06:07.006Z,14.13
2019-04-07T22:08:52.440Z,14.67
2019-04-07T22:11:25.391Z,15.57
2019-04-07T22:13:51.920Z,14.93
2019-04-07T22:16:23.911Z,15.03
2019-04-07T22:18:51.534Z,15.17
2019-04-07T22:21:22.281Z,14.27
2019-04-07T22:23:51.105Z,12.70
2019-04-07T22:26:20.401Z,14.43
2019-04-07T22:28:49.652Z,15.00
2019-04-07T22:31:24.821Z,14.03
2019-04-07T22:33:57.410Z,15.17
2019-04-07T22:36:25.294Z,14.17
2019-04-07T22:38:56.443Z,15.17
2019-04-07T22:41:26.127Z,13.97
2019-04-07T22:43:55.519Z,14.20
2019-04-07T22:46:26.928Z,14.43
2019-04-07T22:48:57.000Z,13.63
2019-04-07T22:51:25.635Z,14.33
2019-04-07T22:53:57.554Z,14.33
2019-04-07T22:56:25.073Z,14.53
2019-04-07T22:58:54.139Z,14.20
2019-04-07T23:01:23.234Z,12.30
2019-04-07T23:03:52.224Z,14.23
2019-04-07T23:06:21.130Z,15.03
2019-04-07T23:08:50.970Z,14.90
2019-04-07T23:11:20.430Z,12.43
2019-04-07T23:13:49.413Z,15.00
2019-04-07T23:16:18.980Z,13.73
2019-04-07T23:18:49.785Z,14.90
2019-04-07T23:21:19.224Z,13.00
2019-04-07T23:23:48.388Z,14.90
2019-04-07T23:26:18.103Z,15.13
2019-04-07T23:28:47.234Z,14.43
2019-04-07T23:31:16.934Z,14.43
2019-04-07T23:33:46.431Z,15.27
2019-04-07T23:36:15.331Z,14.53
2019-04-07T23:38:44.197Z,15.20
2019-04-07T23:41:13.789Z,15.20
2019-04-07T23:43:43.623Z,14.40
2019-04-07T23:46:20.651Z,16.50
2019-04-07T23:48:43.830Z,15.00
2019-04-07T23:51:12.813Z,15.57
2019-04-07T23:54:16.441Z,15.33
2019-04-07T23:56:45.463Z,14.90
2019-04-07T23:59:14.879Z,14.90
